Time;durP1;ratioP1;P1;durP2;ratioP2;P2;SDS_P1;SDS_P2;PMS_P1;PMS_P2;Temp;Humidity;BMP_temperature;BMP_pressure;BME280_temperature;BME280_humidity;BME280_pressure;Samples;Min_cycle;Max_cycle;Signal;HPM_P1;HPM_P2
2023/08/14 00:01:20;;;;;;;5.70;3.00;;;22.60;99.90;;;24.28;62.21;97679.31;5045010;28;20049;-62
2023/08/14 00:03:50;;;;;;;7.38;3.60;;;22.60;99.90;;;24.29;62.25;97681.78;5042227;28;20048;-62
2023/08/14 00:06:17;;;;;;;5.85;4.35;;;22.70;99.90;;;24.29;62.30;97681.78;5040596;28;20255;-61
2023/08/14 00:08:45;;;;;;;4.40;3.92;;;22.70;99.90;;;24.30;62.38;97672.53;5042721;28;20045;-62
2023/08/14 00:11:13;;;;;;;4.63;4.05;;;22.70;99.90;;;24.31;62.15;97667.91;5046713;28;20397;-61
2023/08/14 00:13:54;;;;;;;6.85;3.95;;;22.80;99.90;;;24.33;62.30;97666.59;5042564;28;20049;-62
2023/08/14 00:16:23;;;;;;;5.00;3.80;;;22.80;99.90;;;24.35;62.24;97679.97;5045352;28;20052;-62
2023/08/14 00:18:51;;;;;;;6.10;4.50;;;22.80;99.90;;;24.32;62.56;97670.38;5042453;28;20531;-63
2023/08/14 00:21:20;;;;;;;6.03;4.82;;;22.70;99.90;;;24.30;62.48;97661.66;5041433;28;20057;-62
2023/08/14 00:23:47;;;;;;;5.93;4.13;;;22.70;99.90;;;24.29;62.81;97660.00;5043120;28;20041;-61
2023/08/14 00:26:15;;;;;;;7.93;5.10;;;22.60;99.90;;;24.26;62.68;97668.66;5044942;28;20044;-62
2023/08/14 00:28:43;;;;;;;8.50;5.20;;;22.60;99.90;;;24.25;62.87;97667.00;5042131;28;20052;-62
2023/08/14 00:31:10;;;;;;;6.30;5.05;;;22.60;99.90;;;24.22;62.65;97670.22;5039737;28;20045;-62
2023/08/14 00:33:38;;;;;;;5.63;4.03;;;22.60;99.90;;;24.21;62.92;97671.28;5040575;28;20053;-62
2023/08/14 00:36:06;;;;;;;6.70;4.45;;;22.60;99.90;;;24.23;63.13;97668.31;5043467;28;20033;-62
2023/08/14 00:38:35;;;;;;;5.53;4.30;;;22.60;99.90;;;24.26;63.18;97665.94;5042867;28;20053;-62
2023/08/14 00:41:03;;;;;;;7.10;4.85;;;22.60;99.90;;;24.25;63.22;97660.75;5039679;28;20046;-61
2023/08/14 00:43:31;;;;;;;6.50;4.75;;;22.60;99.90;;;24.26;63.30;97657.78;5039999;28;20045;-62
2023/08/14 00:46:00;;;;;;;5.50;4.13;;;22.70;99.90;;;24.28;63.36;97658.34;5042986;28;20049;-62
2023/08/14 00:48:28;;;;;;;5.15;4.20;;;22.70;99.90;;;24.27;63.37;97645.00;5026162;28;20051;-62
2023/08/14 00:50:56;;;;;;;5.13;4.43;;;22.70;99.90;;;24.27;63.30;97634.13;5023865;28;20048;-62
2023/08/14 00:53:27;;;;;;;5.22;4.72;;;22.70;99.90;;;24.28;63.44;97630.34;5015182;28;20049;-62
2023/08/14 00:55:57;;;;;;;6.32;4.90;;;22.70;99.90;;;24.27;63.60;97631.41;5042332;28;20042;-62
2023/08/14 00:58:25;;;;;;;5.80;4.95;;;22.70;99.90;;;24.28;63.42;97636.59;5019857;28;20072;-62
2023/08/14 01:00:54;;;;;;;6.82;4.65;;;22.80;99.90;;;24.31;63.42;97632.53;5042549;28;20484;-63
2023/08/14 01:03:23;;;;;;;5.70;4.65;;;22.80;99.90;;;24.32;63.32;97626.84;5020576;28;20398;-62
2023/08/14 01:05:51;;;;;;;5.25;4.50;;;22.90;99.90;;;24.34;63.45;97627.44;5016065;28;20053;-62
2023/08/14 01:08:19;;;;;;;6.35;4.45;;;22.90;99.90;;;24.35;63.24;97628.28;5043855;28;20094;-62
2023/08/14 01:11:33;;;;;;;6.28;5.13;;;22.90;99.90;;;24.33;63.19;97638.56;5042597;28;20048;-62
2023/08/14 01:14:19;;;;;;;6.13;4.88;;;22.80;99.90;;;24.34;63.08;97645.66;5042140;28;20045;-61
2023/08/14 01:16:55;;;;;;;5.72;4.47;;;22.80;99.90;;;24.31;63.27;97649.72;5041396;28;20041;-62
2023/08/14 01:19:34;;;;;;;7.00;5.15;;;22.70;99.90;;;24.28;63.32;97650.19;5039384;28;20050;-57
2023/08/14 01:22:16;;;;;;;6.65;5.63;;;22.60;99.90;;;24.26;63.19;97655.06;5033359;28;20045;-58
2023/08/14 01:24:55;;;;;;;6.40;5.30;;;22.60;99.90;;;24.25;63.54;97649.88;5042065;28;20056;-57
2023/08/14 01:27:24;;;;;;;7.10;4.82;;;22.60;99.90;;;24.25;63.54;97647.16;5040390;28;20052;-57
2023/08/14 01:29:59;;;;;;;7.45;5.78;;;22.60;99.90;;;24.23;63.46;97655.53;5038446;28;20056;-57
2023/08/14 01:32:27;;;;;;;5.80;4.85;;;22.60;99.90;;;24.25;63.45;97652.59;5054433;28;20049;-57
2023/08/14 01:34:55;;;;;;;7.40;5.32;;;22.60;99.90;;;24.22;63.69;97659.34;5041222;28;20054;-58
2023/08/14 01:38:30;;;;;;;7.03;4.88;;;22.60;99.90;;;24.18;63.70;97669.91;5043570;28;20048;-56
2023/08/14 01:41:16;;;;;;;5.57;4.57;;;22.60;99.90;;;24.22;63.66;97667.50;5019942;28;20142;-55
2023/08/14 01:43:49;;;;;;;5.43;4.28;;;22.70;99.90;;;24.26;64.06;97656.97;5004064;28;20193;-58
2023/08/14 01:46:17;;;;;;;6.90;5.00;;;22.80;99.90;;;24.25;64.09;97658.03;5024275;28;20164;-56
2023/08/14 01:48:49;;;;;;;5.72;5.03;;;22.80;99.90;;;24.19;64.05;97662.56;5022592;28;20056;-57
2023/08/14 01:51:19;;;;;;;6.40;4.53;;;22.80;99.90;;;24.17;64.30;97645.66;5042031;28;20519;-57
2023/08/14 01:53:47;;;;;;;8.48;5.20;;;22.90;99.90;;;24.17;64.22;97646.50;5040801;28;20056;-57
2023/08/14 01:56:15;;;;;;;9.60;5.63;;;22.90;99.90;;;24.16;64.41;97647.56;5022089;28;20044;-58
2023/08/14 01:58:42;;;;;;;6.20;5.15;;;22.90;99.90;;;24.11;64.72;97636.59;5022503;28;20050;-58
2023/08/14 02:01:10;;;;;;;5.53;4.53;;;22.90;99.90;;;24.04;64.86;97629.69;5034667;28;20049;-57
2023/08/14 02:03:38;;;;;;;6.18;4.47;;;22.80;99.90;;;23.97;64.94;97619.81;5017710;28;20057;-57
2023/08/14 02:06:05;;;;;;;5.53;4.20;;;22.70;99.90;;;23.95;65.08;97613.81;5037680;28;20284;-57
2023/08/14 02:08:33;;;;;;;7.05;4.90;;;22.70;99.90;;;23.94;65.39;97614.03;5038570;28;20466;-57
2023/08/14 02:11:09;;;;;;;11.43;5.10;;;22.60;99.90;;;23.97;65.54;97608.13;5037695;28;20549;-58
2023/08/14 02:13:37;;;;;;;6.60;4.60;;;22.60;99.90;;;24.01;65.68;97594.84;5021345;28;20048;-57
2023/08/14 02:16:05;;;;;;;6.22;5.00;;;22.60;99.90;;;24.00;65.82;97599.47;5016937;28;20060;-58
2023/08/14 02:18:33;;;;;;;7.22;5.38;;;22.50;99.90;;;23.98;65.81;97591.56;5041022;28;20107;-58
2023/08/14 02:21:00;;;;;;;5.65;4.65;;;22.50;99.90;;;24.00;65.79;97585.03;5040291;28;20056;-58
2023/08/14 02:23:28;;;;;;;7.30;5.25;;;22.50;99.90;;;23.95;66.25;97592.06;5039482;28;20056;-58
2023/08/14 02:25:56;;;;;;;5.55;4.95;;;22.40;99.90;;;23.96;66.23;97591.00;5039239;28;20061;-58
2023/08/14 02:28:24;;;;;;;6.15;4.88;;;22.50;99.90;;;23.96;66.22;97582.00;5041338;28;20424;-57
2023/08/14 02:30:53;;;;;;;4.60;4.20;;;22.50;99.90;;;23.94;66.47;97570.53;5041487;28;20033;-58
2023/08/14 02:33:20;;;;;;;5.80;4.72;;;22.40;99.90;;;23.91;66.46;97566.44;5037532;28;20048;-58
2023/08/14 02:35:48;;;;;;;6.68;4.75;;;22.40;99.90;;;23.91;66.65;97561.00;5039573;28;20261;-57
2023/08/14 02:38:15;;;;;;;5.32;4.82;;;22.40;99.90;;;23.91;66.54;97550.13;5038522;28;20046;-58
2023/08/14 02:40:44;;;;;;;4.70;4.13;;;22.40;99.90;;;23.91;66.33;97550.13;5037848;28;20049;-59
2023/08/14 02:43:12;;;;;;;4.97;4.05;;;22.40;99.90;;;23.91;66.35;97555.56;5040899;28;20519;-57
2023/08/14 02:45:41;;;;;;;6.00;4.50;;;22.40;99.90;;;23.93;66.13;97547.97;5040964;28;20048;-55
2023/08/14 02:48:11;;;;;;;4.18;3.60;;;22.40;99.90;;;23.93;66.01;97544.44;5017209;28;20408;-58
2023/08/14 02:50:39;;;;;;;5.95;3.75;;;22.40;99.90;;;23.88;66.22;97533.50;5035824;28;20045;-59
2023/08/14 02:53:07;;;;;;;6.30;4.88;;;22.30;99.90;;;23.89;66.01;97533.25;5041692;28;20404;-58
2023/08/14 02:55:34;;;;;;;5.53;4.60;;;22.30;99.90;;;23.90;66.08;97547.66;5040787;28;20041;-58
2023/08/14 02:58:02;;;;;;;4.32;3.88;;;22.30;99.90;;;23.88;66.05;97538.94;5039042;28;20045;-58
2023/08/14 03:00:30;;;;;;;6.57;4.35;;;22.30;99.90;;;23.86;66.06;97547.31;5021378;28;20057;-58
2023/08/14 03:02:58;;;;;;;7.78;5.28;;;22.20;99.90;;;23.82;66.16;97548.09;5038981;28;20429;-57
2023/08/14 03:05:25;;;;;;;6.40;5.10;;;22.10;99.90;;;23.74;66.41;97552.81;5042550;28;20048;-57
2023/08/14 03:07:53;;;;;;;6.00;5.43;;;22.00;99.90;;;23.70;66.38;97554.41;5040342;28;20123;-57
2023/08/14 03:10:22;;;;;;;6.78;5.65;;;22.00;99.90;;;23.66;66.62;97566.84;5037251;28;20048;-57
2023/08/14 03:12:50;;;;;;;7.25;5.68;;;22.00;99.90;;;23.61;66.75;97577.59;5037633;28;20076;-58
2023/08/14 03:15:18;;;;;;;7.68;6.05;;;22.00;99.90;;;23.59;66.75;97590.63;5040632;28;20513;-56
2023/08/14 03:17:46;;;;;;;5.45;4.95;;;22.00;99.90;;;23.56;66.69;97600.09;5040536;28;20535;-57
2023/08/14 03:20:14;;;;;;;6.47;5.32;;;22.00;99.90;;;23.53;66.98;97603.28;5031693;28;20401;-58
2023/08/14 03:22:42;;;;;;;6.57;5.68;;;21.90;99.90;;;23.51;67.10;97599.19;5042342;28;20044;-58
2023/08/14 03:25:09;;;;;;;6.22;5.57;;;21.90;99.90;;;23.49;67.14;97595.91;5038223;28;20045;-58
2023/08/14 03:27:38;;;;;;;6.80;5.15;;;21.80;99.90;;;23.46;66.92;97604.53;5037564;28;20497;-58
2023/08/14 03:30:06;;;;;;;7.28;4.75;;;21.80;99.90;;;23.44;67.11;97604.78;5036722;28;20421;-58
2023/08/14 03:32:34;;;;;;;5.28;4.28;;;21.80;99.90;;;23.39;67.02;97597.34;5037969;28;20485;-58
2023/08/14 03:35:04;;;;;;;5.65;4.25;;;21.80;99.90;;;23.37;67.10;97614.97;5039077;28;20067;-58
2023/08/14 03:37:32;;;;;;;5.45;4.22;;;21.80;99.90;;;23.33;67.22;97616.53;5037750;28;20049;-58
2023/08/14 03:40:00;;;;;;;7.00;4.47;;;21.70;99.90;;;23.30;67.05;97600.72;5041616;28;20045;-59
2023/08/14 03:42:30;;;;;;;7.25;4.30;;;21.70;99.90;;;23.28;66.94;97600.13;5044493;28;20049;-58
2023/08/14 03:44:57;;;;;;;5.38;4.78;;;21.70;99.90;;;23.25;66.87;97595.22;5043388;28;20052;-58
2023/08/14 03:47:25;;;;;;;4.40;4.00;;;21.60;99.90;;;23.21;67.21;97589.44;5042254;28;20042;-58
2023/08/14 03:49:54;;;;;;;5.72;5.13;;;21.60;99.90;;;23.18;67.09;97596.16;5041425;28;20516;-58
2023/08/14 03:52:21;;;;;;;7.47;5.00;;;21.50;99.90;;;23.13;66.95;97604.22;5044033;28;20048;-57
2023/08/14 03:54:49;;;;;;;5.20;3.88;;;21.40;99.90;;;23.06;66.99;97611.69;5044012;28;20524;-58
2023/08/14 03:57:17;;;;;;;4.82;3.47;;;21.40;99.90;;;22.97;67.06;97616.66;5040317;28;20046;-58
2023/08/14 03:59:44;;;;;;;4.70;3.60;;;21.40;99.90;;;22.84;67.00;97606.09;5040159;28;20056;-58
2023/08/14 04:02:15;;;;;;;4.07;3.03;;;21.20;99.90;;;22.77;66.60;97581.78;5043299;28;20056;-57
2023/08/14 04:04:44;;;;;;;4.63;3.08;;;21.10;99.90;;;22.69;66.61;97578.63;5045265;28;20056;-58
2023/08/14 04:07:13;;;;;;;4.85;2.90;;;21.00;99.90;;;22.68;66.58;97574.25;5041007;28;20064;-57
2023/08/14 04:09:41;;;;;;;4.50;2.72;;;21.00;99.90;;;22.62;66.13;97584.19;5041665;28;20049;-58
2023/08/14 04:12:09;;;;;;;3.15;2.50;;;21.00;99.90;;;22.59;66.39;97590.94;5042717;28;20390;-58
2023/08/14 04:14:37;;;;;;;4.40;2.22;;;21.00;99.90;;;22.54;66.21;97598.94;5043601;28;20485;-58
2023/08/14 04:17:05;;;;;;;3.85;2.65;;;20.90;99.90;;;22.57;66.09;97595.78;5042335;28;20045;-59
2023/08/14 04:19:32;;;;;;;2.85;1.98;;;21.00;99.90;;;22.50;66.11;97599.69;5023967;28;20512;-57
2023/08/14 04:22:00;;;;;;;3.00;1.90;;;20.90;99.90;;;22.48;66.00;97596.38;5041974;28;20057;-58
2023/08/14 04:24:27;;;;;;;3.65;2.38;;;20.90;99.90;;;22.45;66.02;97602.28;5043450;28;20049;-58
2023/08/14 04:26:55;;;;;;;3.72;2.08;;;20.90;99.90;;;22.43;66.12;97591.69;5045003;28;20052;-58
2023/08/14 04:29:24;;;;;;;5.03;3.08;;;20.90;99.90;;;22.41;65.73;97593.78;5043044;28;20053;-58
2023/08/14 04:31:52;;;;;;;2.80;2.30;;;20.80;99.90;;;22.32;65.54;97598.75;5042104;28;20049;-58
2023/08/14 04:34:20;;;;;;;3.22;2.08;;;20.80;99.90;;;22.17;65.96;97604.63;5041657;28;20045;-57
2023/08/14 04:36:51;;;;;;;2.88;2.22;;;20.70;99.90;;;22.15;65.88;97590.50;5039773;28;20353;-57
2023/08/14 04:39:20;;;;;;;4.07;2.10;;;20.70;99.90;;;22.13;65.70;97587.19;5026599;28;20284;-56
2023/08/14 04:41:47;;;;;;;3.15;1.90;;;20.70;99.90;;;22.19;65.56;97577.28;5019950;28;20056;-57
2023/08/14 04:44:15;;;;;;;3.35;1.80;;;20.70;99.90;;;22.21;65.42;97577.88;5042496;28;20484;-57
2023/08/14 04:46:44;;;;;;;2.70;1.88;;;20.80;99.90;;;22.21;65.46;97594.97;5042839;28;20504;-55
2023/08/14 04:49:29;;;;;;;1.90;1.63;;;20.80;99.90;;;22.28;65.35;97594.06;5031499;28;20064;-56
2023/08/14 04:51:56;;;;;;;2.70;2.28;;;20.90;99.90;;;22.29;65.24;97591.09;5023376;28;20045;-57
2023/08/14 04:54:27;;;;;;;2.90;1.90;;;20.90;99.90;;;22.35;64.96;97592.03;5039176;28;20052;-57
2023/08/14 04:56:54;;;;;;;3.28;2.28;;;20.90;99.90;;;22.31;64.92;97586.25;5041041;28;20041;-57
2023/08/14 04:59:22;;;;;;;3.53;2.10;;;20.90;99.90;;;22.41;64.64;97583.78;5034584;28;20041;-53
2023/08/14 05:01:52;;;;;;;2.20;1.85;;;21.00;99.90;;;22.40;64.71;97575.88;5042871;28;20049;-57
2023/08/14 05:04:22;;;;;;;2.60;1.95;;;21.00;99.90;;;22.45;64.70;97581.41;5015541;28;20049;-57
2023/08/14 05:06:51;;;;;;;3.03;1.70;;;21.00;99.90;;;22.52;64.87;97573.94;5039570;28;20054;-57
2023/08/14 05:09:20;;;;;;;5.05;2.20;;;21.10;99.90;;;22.58;64.79;97580.31;5025234;28;20517;-57
2023/08/14 05:11:57;;;;;;;2.70;2.03;;;21.10;99.90;;;22.54;64.75;97576.44;5034819;28;20038;-57
2023/08/14 05:14:25;;;;;;;3.08;2.05;;;21.10;99.90;;;22.51;64.63;97576.94;5040543;28;20046;-57
2023/08/14 05:16:52;;;;;;;3.60;1.90;;;21.00;99.90;;;22.52;64.75;97576.66;5039303;28;20489;-58
2023/08/14 05:19:20;;;;;;;3.45;2.30;;;21.00;99.90;;;22.53;64.14;97580.22;5058113;28;20054;-58
2023/08/14 05:21:48;;;;;;;2.42;1.85;;;21.00;99.90;;;22.54;64.22;97577.25;5042055;28;20045;-58
2023/08/14 05:24:16;;;;;;;3.97;2.63;;;21.10;99.90;;;22.56;63.92;97558.84;5039880;28;20049;-58
2023/08/14 05:26:44;;;;;;;2.42;2.00;;;21.10;99.90;;;22.63;64.05;97555.19;5039285;28;20052;-59
2023/08/14 05:29:11;;;;;;;2.63;1.70;;;21.20;99.90;;;22.64;63.92;97562.25;5056121;28;20049;-58
2023/08/14 05:31:39;;;;;;;3.85;1.75;;;21.20;99.90;;;22.73;63.72;97564.34;5042176;28;20041;-58
2023/08/14 05:34:07;;;;;;;3.50;1.80;;;21.30;99.90;;;22.81;63.46;97574.00;5042994;28;20036;-59
2023/08/14 05:36:34;;;;;;;2.17;1.90;;;21.40;99.90;;;22.87;63.53;97575.72;5022782;28;20061;-59
2023/08/14 05:39:02;;;;;;;3.45;1.75;;;21.50;99.90;;;22.92;63.58;97586.69;5039274;28;20505;-58
2023/08/14 05:41:30;;;;;;;2.28;1.95;;;21.50;99.90;;;22.97;63.63;97577.81;5030674;28;20041;-59
2023/08/14 05:43:58;;;;;;;4.35;2.08;;;21.60;99.90;;;23.00;63.18;97578.16;5039921;28;20048;-59
2023/08/14 05:46:25;;;;;;;2.13;1.70;;;21.60;99.90;;;23.04;63.13;97581.25;5042741;28;20048;-59
2023/08/14 05:48:53;;;;;;;2.20;1.60;;;21.60;99.90;;;23.08;62.90;97576.16;5025081;28;20052;-59
2023/08/14 05:51:20;;;;;;;4.35;2.10;;;21.60;99.90;;;23.12;63.01;97578.13;5039072;28;20497;-58
2023/08/14 05:53:48;;;;;;;2.65;1.52;;;21.60;99.90;;;23.17;62.65;97572.00;5039888;28;20041;-59
2023/08/14 05:56:16;;;;;;;2.90;2.13;;;21.70;99.90;;;23.19;62.97;97557.09;5040092;28;20048;-59
2023/08/14 05:58:43;;;;;;;4.03;1.77;;;21.70;99.90;;;23.24;62.99;97572.63;5043337;28;20052;-58
2023/08/14 06:01:12;;;;;;;2.45;1.80;;;21.80;99.90;;;23.28;63.12;97581.94;5041081;28;20041;-59
2023/08/14 06:03:40;;;;;;;3.72;2.40;;;21.80;99.90;;;23.30;62.82;97585.25;5039743;28;20044;-59
2023/08/14 06:06:12;;;;;;;2.97;1.88;;;21.80;99.90;;;23.31;62.44;97589.63;5040263;28;20045;-59
2023/08/14 06:08:39;;;;;;;3.22;2.20;;;21.70;99.90;;;23.32;62.44;97574.97;5041744;28;20040;-59
2023/08/14 06:11:07;;;;;;;3.90;2.00;;;21.80;99.90;;;23.35;62.77;97570.94;5041554;28;20048;-59
2023/08/14 06:13:35;;;;;;;3.00;2.17;;;21.80;99.90;;;23.37;62.94;97569.63;5039615;28;20045;-59
2023/08/14 06:16:02;;;;;;;3.78;2.25;;;21.80;99.90;;;23.35;63.15;97566.31;5038457;28;20044;-58
2023/08/14 06:18:30;;;;;;;2.90;1.85;;;21.80;99.90;;;23.35;63.31;97565.50;5041089;28;20043;-59
2023/08/14 06:20:57;;;;;;;2.80;1.70;;;21.80;99.90;;;23.34;63.32;97569.28;5042934;28;20037;-59
2023/08/14 06:23:25;;;;;;;4.35;2.05;;;21.80;99.90;;;23.33;63.14;97570.38;5030942;28;20087;-59
2023/08/14 06:25:53;;;;;;;11.57;2.55;;;21.80;99.90;;;23.33;63.20;97567.66;5039190;28;20061;-59
2023/08/14 06:28:20;;;;;;;2.80;2.15;;;21.80;99.90;;;23.29;63.29;97555.63;5040750;28;20349;-59
2023/08/14 06:30:48;;;;;;;4.97;2.25;;;21.80;99.90;;;23.26;63.41;97561.53;5041748;28;20064;-58
2023/08/14 06:33:16;;;;;;;3.72;1.92;;;21.70;99.90;;;23.25;63.36;97559.91;5040493;28;20052;-59
2023/08/14 06:35:43;;;;;;;6.90;2.78;;;21.70;99.90;;;23.23;63.41;97562.03;5039708;28;20041;-58
2023/08/14 06:38:11;;;;;;;4.70;2.30;;;21.70;99.90;;;23.23;63.75;97551.19;5038966;28;20136;-59
2023/08/14 06:40:39;;;;;;;3.22;2.08;;;21.70;99.90;;;23.24;63.74;97556.34;5042654;28;20052;-59
2023/08/14 06:43:07;;;;;;;4.38;2.33;;;21.70;99.90;;;23.23;63.41;97549.28;5042632;28;20037;-58
2023/08/14 06:45:35;;;;;;;7.70;3.03;;;21.70;99.90;;;23.22;63.36;97568.53;5039453;28;20053;-58
2023/08/14 06:48:04;;;;;;;4.45;2.30;;;21.80;99.90;;;23.23;63.24;97572.91;5039350;28;20047;-59
2023/08/14 06:50:31;;;;;;;2.85;2.08;;;21.70;99.90;;;23.23;63.26;97560.16;5040502;28;20408;-58
2023/08/14 06:52:59;;;;;;;5.50;2.10;;;21.80;99.90;;;23.23;63.82;97562.88;5042768;28;20054;-58
2023/08/14 06:55:27;;;;;;;4.30;2.50;;;21.80;99.90;;;23.28;63.87;97567.53;5038731;28;20508;-58
2023/08/14 06:57:54;;;;;;;2.90;2.10;;;21.80;99.90;;;23.31;63.91;97588.78;5039423;28;20037;-59
2023/08/14 07:00:22;;;;;;;6.28;2.30;;;21.90;99.90;;;23.35;63.79;97579.91;5040165;28;20050;-58
2023/08/14 07:02:50;;;;;;;7.07;3.13;;;22.00;99.90;;;23.41;63.89;97580.00;5043058;28;20040;-58
2023/08/14 07:05:17;;;;;;;4.90;2.38;;;22.10;99.90;;;23.44;63.74;97585.78;5041848;28;20445;-58
2023/08/14 07:07:45;;;;;;;6.47;2.67;;;22.10;99.90;;;23.47;63.86;97593.41;5039119;28;20428;-58
2023/08/14 07:10:13;;;;;;;3.40;2.40;;;22.10;99.90;;;23.51;63.40;97583.69;5037962;28;20050;-58
2023/08/14 07:12:41;;;;;;;5.10;2.35;;;22.20;99.90;;;23.56;63.30;97574.81;5045497;28;20037;-59
2023/08/14 07:15:10;;;;;;;3.88;2.28;;;22.20;99.90;;;23.62;63.54;97570.31;5046547;28;20037;-59
2023/08/14 07:17:38;;;;;;;4.53;3.03;;;22.30;99.90;;;23.67;63.49;97564.94;5034999;28;20361;-58
2023/08/14 07:20:08;;;;;;;3.97;2.78;;;22.40;99.90;;;23.71;63.34;97561.50;5042476;28;20071;-59
2023/08/14 07:22:38;;;;;;;2.63;1.90;;;22.40;99.90;;;23.75;63.16;97570.78;5046112;28;20044;-59
2023/08/14 07:25:07;;;;;;;3.47;2.60;;;22.50;99.90;;;23.80;63.20;97561.09;5044928;28;20416;-59
2023/08/14 07:27:35;;;;;;;3.42;2.38;;;22.60;99.90;;;23.84;63.36;97563.06;5043047;28;20068;-58
2023/08/14 07:30:05;;;;;;;5.60;2.47;;;22.70;99.90;;;23.90;63.43;97567.50;5042652;28;20041;-58
2023/08/14 07:32:33;;;;;;;3.20;2.28;;;22.70;99.90;;;23.96;63.28;97571.97;5044297;28;20409;-59
2023/08/14 07:35:00;;;;;;;2.60;2.22;;;22.80;99.90;;;24.02;63.31;97569.28;5045982;28;20052;-59
2023/08/14 07:37:28;;;;;;;4.97;2.70;;;22.80;99.90;;;24.04;63.09;97568.00;5043033;28;20056;-59
2023/08/14 07:39:56;;;;;;;6.70;2.83;;;22.90;99.90;;;24.09;62.54;97567.22;5042172;28;20511;-58
2023/08/14 07:42:23;;;;;;;5.72;2.47;;;22.90;99.90;;;24.13;62.35;97569.19;5043692;28;20045;-58
2023/08/14 07:44:51;;;;;;;5.72;2.50;;;23.00;99.90;;;24.18;62.33;97568.47;5044407;28;20420;-59
2023/08/14 07:47:19;;;;;;;5.20;2.47;;;23.00;99.90;;;24.22;62.00;97561.44;5045409;28;20481;-59
2023/08/14 07:49:46;;;;;;;5.78;1.80;;;23.10;99.80;;;24.27;61.87;97563.41;5042225;28;20050;-59
2023/08/14 07:52:14;;;;;;;3.17;2.17;;;23.10;99.40;;;24.33;61.88;97562.38;5041174;28;20049;-59
2023/08/14 07:54:42;;;;;;;3.78;2.33;;;23.20;99.20;;;24.38;61.81;97559.75;5034304;28;20409;-59
2023/08/14 07:57:09;;;;;;;2.78;2.17;;;23.20;99.20;;;24.41;61.49;97556.53;5042500;28;20053;-59
2023/08/14 07:59:37;;;;;;;3.95;1.80;;;23.20;98.20;;;24.45;61.41;97559.56;5044520;28;20045;-59
2023/08/14 08:02:05;;;;;;;4.35;1.75;;;23.30;97.80;;;24.50;61.54;97559.63;5045563;28;20071;-59
2023/08/14 08:04:36;;;;;;;4.07;2.65;;;23.40;97.90;;;24.53;61.22;97562.69;5043350;28;20041;-59
2023/08/14 08:07:07;;;;;;;2.50;2.10;;;23.40;97.30;;;24.58;60.96;97572.00;5042049;28;20588;-59
2023/08/14 08:09:37;;;;;;;2.33;2.00;;;23.40;96.80;;;24.61;61.03;97568.78;5044404;28;20044;-59
2023/08/14 08:12:07;;;;;;;4.55;2.30;;;23.50;97.00;;;24.64;61.37;97560.94;5043925;28;20049;-59
2023/08/14 08:14:35;;;;;;;2.80;2.08;;;23.50;97.40;;;24.70;60.67;97569.97;5042868;28;20052;-58
2023/08/14 08:17:03;;;;;;;3.03;2.35;;;23.60;96.40;;;24.74;60.74;97565.66;5040850;28;20282;-59
2023/08/14 08:19:31;;;;;;;4.75;2.20;;;23.60;96.00;;;24.79;60.74;97573.88;5040331;28;20433;-59
2023/08/14 08:21:59;;;;;;;4.53;3.60;;;23.70;96.10;;;24.84;61.27;97593.00;5038830;28;20041;-59
2023/08/14 08:24:27;;;;;;;4.22;2.50;;;23.70;96.50;;;24.90;60.71;97599.31;5036102;28;20056;-59
2023/08/14 08:26:55;;;;;;;4.10;2.70;;;23.80;96.10;;;24.95;60.40;97596.66;5044082;28;20504;-58
2023/08/14 08:29:22;;;;;;;3.30;2.88;;;23.80;95.60;;;25.02;60.81;97594.56;5044402;28;20059;-59
2023/08/14 08:31:50;;;;;;;3.38;2.30;;;23.90;95.90;;;25.08;60.64;97598.16;5040336;28;20053;-58
2023/08/14 08:34:18;;;;;;;3.58;2.40;;;24.00;95.70;;;25.13;60.54;97601.75;5041737;28;20394;-59
2023/08/14 08:36:46;;;;;;;5.05;2.20;;;24.00;95.50;;;25.18;60.07;97606.44;5044944;28;20045;-59
2023/08/14 08:39:13;;;;;;;3.90;2.10;;;24.10;94.20;;;25.25;60.12;97609.00;5044900;28;20037;-58
2023/08/14 08:41:46;;;;;;;3.50;2.80;;;24.20;94.00;;;25.32;59.54;97598.72;5041748;28;20045;-59
2023/08/14 08:44:27;;;;;;;2.45;2.13;;;24.20;93.20;;;25.39;59.94;97598.50;5041397;28;20045;-59
2023/08/14 08:47:06;;;;;;;3.65;2.60;;;24.30;92.10;;;25.46;59.87;97596.41;5033137;28;20053;-59
2023/08/14 08:49:35;;;;;;;3.10;2.80;;;24.30;92.70;;;25.50;59.29;97592.88;5042902;28;20413;-59
2023/08/14 08:52:03;;;;;;;4.43;2.45;;;24.40;92.80;;;25.56;59.55;97588.31;5043340;28;20208;-59
2023/08/14 08:54:32;;;;;;;3.13;2.50;;;24.50;92.40;;;25.63;59.44;97596.25;5043134;28;20508;-58
2023/08/14 08:57:00;;;;;;;4.25;2.80;;;24.50;92.10;;;25.68;59.21;97599.84;5040166;28;20045;-58
2023/08/14 08:59:28;;;;;;;5.85;2.70;;;24.60;92.20;;;25.74;58.99;97595.25;5042490;28;20083;-59
2023/08/14 09:01:56;;;;;;;5.03;2.55;;;24.60;91.50;;;25.79;58.77;97587.13;5042992;28;20037;-59
2023/08/14 09:04:25;;;;;;;4.80;3.00;;;24.70;90.90;;;25.82;58.16;97586.59;5043882;28;20047;-59
2023/08/14 09:06:53;;;;;;;3.40;2.70;;;24.80;89.60;;;25.86;57.96;97587.75;5035624;28;20045;-59
2023/08/14 09:09:22;;;;;;;4.70;3.47;;;24.80;89.00;;;25.92;57.97;97592.19;5042986;28;20049;-59
2023/08/14 09:11:49;;;;;;;7.50;3.38;;;24.80;89.00;;;25.97;58.03;97587.84;5031268;28;20045;-58
2023/08/14 09:14:17;;;;;;;3.47;3.17;;;24.90;88.60;;;26.06;58.32;97592.53;5038847;28;20051;-59
2023/08/14 09:16:45;;;;;;;5.00;3.30;;;25.00;88.80;;;26.13;57.83;97598.59;5032456;28;20057;-59
2023/08/14 09:19:15;;;;;;;3.90;2.83;;;25.10;88.30;;;26.22;57.87;97598.91;5040676;28;20482;-59
2023/08/14 09:21:44;;;;;;;3.47;2.80;;;25.20;88.00;;;26.32;57.26;97600.88;5042824;28;20049;-59
2023/08/14 09:24:16;;;;;;;5.68;3.10;;;25.30;86.60;;;26.41;56.87;97596.56;5043033;28;20040;-59
2023/08/14 09:26:44;;;;;;;3.30;2.97;;;25.40;85.50;;;26.52;56.85;97587.34;5041248;28;20412;-59
2023/08/14 09:29:14;;;;;;;3.50;3.03;;;25.60;85.00;;;26.66;56.41;97584.16;5039264;28;20394;-59
2023/08/14 09:31:45;;;;;;;4.45;3.00;;;25.80;84.30;;;26.77;56.87;97583.09;5040048;28;20053;-59
2023/08/14 09:34:18;;;;;;;4.25;2.83;;;25.80;83.90;;;26.85;55.81;97588.06;5042541;28;20117;-59
2023/08/14 09:36:48;;;;;;;4.25;3.00;;;25.90;82.90;;;26.90;56.00;97579.88;5039941;28;20037;-59
2023/08/14 09:39:17;;;;;;;5.35;3.35;;;26.00;83.70;;;26.95;56.57;97570.88;5040332;28;20037;-59
2023/08/14 09:41:48;;;;;;;3.75;2.80;;;26.00;84.30;;;26.99;56.04;97568.44;5041245;28;20296;-59
2023/08/14 09:44:20;;;;;;;5.38;2.78;;;26.00;83.70;;;27.03;56.26;97570.34;5044035;28;20045;-59
2023/08/14 09:46:51;;;;;;;3.67;2.53;;;26.00;84.40;;;27.10;56.63;97578.28;5039039;28;20052;-60
2023/08/14 09:49:19;;;;;;;4.03;3.17;;;26.10;85.00;;;27.19;56.67;97584.03;5023065;28;20053;-59
2023/08/14 09:51:57;;;;;;;4.47;2.88;;;26.20;84.60;;;27.25;56.18;97575.59;5040433;28;20509;-58
2023/08/14 09:54:34;;;;;;;4.38;2.67;;;26.30;83.40;;;27.32;55.53;97577.25;5042092;28;20036;-58
2023/08/14 09:57:05;;;;;;;3.47;2.80;;;26.30;82.00;;;27.36;55.62;97575.63;5038803;28;20493;-58
2023/08/14 09:59:36;;;;;;;3.50;2.90;;;26.30;82.10;;;27.40;54.69;97577.56;5040963;28;20062;-58
2023/08/14 10:02:15;;;;;;;7.68;3.78;;;26.40;81.10;;;27.45;54.71;97576.72;5042989;28;20045;-59
2023/08/14 10:04:46;;;;;;;3.35;2.97;;;26.40;79.50;;;27.48;53.91;97570.72;5041342;28;20535;-59
2023/08/14 10:07:16;;;;;;;3.40;2.92;;;26.40;78.80;;;27.50;54.38;97572.09;5038773;28;20041;-59
2023/08/14 10:09:54;;;;;;;4.68;2.78;;;26.50;80.10;;;27.57;54.35;97580.03;5039762;28;20049;-58
2023/08/14 10:12:39;;;;;;;3.33;2.88;;;26.50;80.10;;;27.60;55.07;97568.53;5018864;28;20053;-58
2023/08/14 10:15:10;;;;;;;4.95;2.70;;;26.60;80.50;;;27.67;55.35;97563.63;5017068;28;20041;-59
2023/08/14 10:17:59;;;;;;;5.38;2.83;;;26.60;81.60;;;27.72;55.24;97564.69;5040525;28;20045;-58
2023/08/14 10:20:36;;;;;;;3.38;3.00;;;26.70;80.50;;;27.80;54.69;97567.72;5041649;28;20714;-58
2023/08/14 10:23:06;;;;;;;4.00;2.72;;;26.70;79.50;;;27.85;54.55;97559.50;5031445;28;20044;-58
2023/08/14 10:25:36;;;;;;;3.67;3.00;;;26.80;79.90;;;27.88;54.20;97563.66;5038511;28;20050;-58
2023/08/14 10:28:07;;;;;;;3.67;3.38;;;26.80;79.60;;;27.97;54.37;97558.41;5041761;28;20037;-58
2023/08/14 10:30:36;;;;;;;3.58;3.28;;;27.00;80.20;;;28.05;53.53;97566.06;5041889;28;20048;-59